Time;durP1;ratioP1;P1;durP2;ratioP2;P2;SDS_P1;SDS_P2;PMS_P1;PMS_P2;Temp;Humidity;BMP_temperature;BMP_pressure;BME280_temperature;BME280_humidity;BME280_pressure;Samples;Min_cycle;Max_cycle;Signal;HPM_P1;HPM_P2
2023/10/08 00:00:55;;;;;;;11.33;4.63;;;16.20;99.90;;;;;;5086671;28;20036;-63
2023/10/08 00:03:29;;;;;;;11.98;5.38;;;16.10;99.90;;;;;;5101417;28;20294;-65
2023/10/08 00:06:14;;;;;;;10.55;4.40;;;16.10;99.90;;;;;;5101803;28;20040;-63
2023/10/08 00:08:42;;;;;;;12.88;5.15;;;16.10;99.90;;;;;;5098817;28;20036;-63
2023/10/08 00:11:10;;;;;;;10.52;4.60;;;16.10;99.90;;;;;;5104454;28;20636;-63
2023/10/08 00:13:42;;;;;;;19.27;6.80;;;16.10;99.90;;;;;;5103102;28;20059;-63
2023/10/08 00:16:09;;;;;;;15.32;5.57;;;16.10;99.90;;;;;;5104756;28;20172;-63
2023/10/08 00:18:37;;;;;;;17.20;6.45;;;16.10;99.90;;;;;;5087457;28;20043;-63
2023/10/08 00:23:56;;;;;;;16.20;5.57;;;16.10;99.90;;;;;;5085391;28;20053;-62
2023/10/08 00:26:29;;;;;;;13.05;4.93;;;16.00;99.90;;;;;;5084145;28;20048;-64
2023/10/08 00:29:15;;;;;;;11.80;5.53;;;16.00;99.90;;;;;;5091469;28;20036;-62
2023/10/08 00:31:44;;;;;;;14.98;5.65;;;16.00;99.90;;;;;;5083203;28;20045;-64
2023/10/08 00:34:11;;;;;;;12.57;5.10;;;16.00;99.90;;;;;;5085176;28;20111;-64
2023/10/08 00:36:42;;;;;;;14.93;5.18;;;16.00;99.90;;;;;;5092173;28;20093;-63
2023/10/08 00:39:10;;;;;;;20.50;5.80;;;16.00;99.90;;;;;;5086655;28;20408;-63
2023/10/08 00:41:38;;;;;;;14.98;5.55;;;16.00;99.90;;;;;;5090125;28;20075;-63
2023/10/08 00:44:07;;;;;;;20.35;5.32;;;16.00;99.90;;;;;;5082947;28;20043;-63
2023/10/08 00:46:35;;;;;;;14.82;5.32;;;16.00;99.90;;;;;;5089533;28;20101;-63
2023/10/08 00:50:06;;;;;;;13.90;5.10;;;16.00;99.90;;;;;;5088579;28;20093;-63
2023/10/08 00:57:20;;;;;;;16.95;5.75;;;16.00;99.90;;;;;;5090579;28;20035;-63
2023/10/08 00:59:52;;;;;;;13.13;5.68;;;16.00;99.90;;;;;;5081842;28;20041;-63
2023/10/08 01:02:26;;;;;;;22.65;6.57;;;16.00;99.90;;;;;;5079804;28;20496;-63
2023/10/08 01:04:54;;;;;;;17.25;6.22;;;16.00;99.90;;;;;;5088948;28;20040;-64
2023/10/08 01:07:21;;;;;;;14.35;6.32;;;16.00;99.90;;;;;;5083317;28;20758;-64
2023/10/08 01:09:51;;;;;;;15.10;5.82;;;16.00;99.90;;;;;;5089517;28;20040;-63
2023/10/08 01:13:14;;;;;;;23.10;5.72;;;16.00;99.90;;;;;;5090025;28;20040;-63
2023/10/08 01:15:16;;;;;;;15.25;5.50;;;16.00;99.90;;;;;;5080279;28;20522;-64
2023/10/08 01:17:51;;;;;;;19.15;6.30;;;16.00;99.90;;;;;;5082162;28;20463;-63
2023/10/08 01:20:33;;;;;;;14.63;6.40;;;16.00;99.90;;;;;;5084675;28;20117;-63
2023/10/08 01:23:13;;;;;;;15.55;6.53;;;16.00;99.90;;;;;;5086612;28;20039;-63
2023/10/08 01:25:43;;;;;;;17.40;6.47;;;16.00;99.90;;;;;;5089501;28;20044;-64
2023/10/08 01:28:15;;;;;;;15.23;6.25;;;16.00;99.90;;;;;;5086194;28;20040;-63
2023/10/08 01:30:42;;;;;;;19.25;6.88;;;16.00;99.90;;;;;;5086793;28;20373;-61
2023/10/08 01:33:13;;;;;;;16.60;7.88;;;16.00;99.90;;;;;;5078899;28;20044;-62
2023/10/08 01:35:39;;;;;;;17.90;7.50;;;15.90;99.90;;;;;;5089103;28;20051;-61
2023/10/08 01:38:07;;;;;;;16.33;8.35;;;16.00;99.90;;;;;;5085263;28;20035;-64
2023/10/08 01:40:32;;;;;;;16.52;7.78;;;16.00;99.90;;;;;;5089064;28;20507;-64
2023/10/08 01:43:03;;;;;;;;;;;15.90;99.90;;;;;;5085442;28;20121;-63
2023/10/08 01:45:30;;;;;;;14.63;6.78;;;15.90;99.90;;;;;;5087550;28;19931;-63
2023/10/08 01:47:56;;;;;;;17.85;8.23;;;16.00;99.90;;;;;;5087001;28;20106;-63
2023/10/08 01:50:22;;;;;;;19.80;8.48;;;15.90;99.90;;;;;;5085260;28;20043;-63
2023/10/08 01:52:48;;;;;;;;;;;15.90;99.90;;;;;;5087240;28;20606;-63
2023/10/08 01:55:18;;;;;;;21.48;7.57;;;15.90;99.90;;;;;;5087974;28;19920;-63
2023/10/08 01:57:47;;;;;;;27.63;9.02;;;15.90;99.90;;;;;;5086829;28;20036;-63
2023/10/08 02:00:20;;;;;;;24.23;9.05;;;15.90;99.90;;;;;;5087846;28;20075;-63
2023/10/08 02:02:50;;;;;;;23.05;8.70;;;15.90;99.90;;;;;;5065485;28;20468;-63
2023/10/08 02:05:18;;;;;;;24.55;8.90;;;15.90;99.90;;;;;;5067524;28;20036;-63
2023/10/08 02:07:45;;;;;;;26.08;9.63;;;15.90;99.90;;;;;;5063553;28;20115;-62
2023/10/08 02:10:11;;;;;;;21.65;9.70;;;15.90;99.90;;;;;;5065727;28;20041;-63
2023/10/08 02:12:41;;;;;;;26.45;10.30;;;15.90;99.90;;;;;;5067730;28;20047;-63
2023/10/08 02:15:07;;;;;;;19.63;9.23;;;15.90;99.90;;;;;;5066302;28;20037;-62
2023/10/08 02:17:34;;;;;;;21.15;9.25;;;15.90;99.90;;;;;;5067315;28;20512;-63
2023/10/08 02:20:04;;;;;;;22.05;10.52;;;15.90;99.90;;;;;;5066756;28;20518;-63
2023/10/08 02:22:30;;;;;;;26.75;10.82;;;15.90;99.90;;;;;;5063815;28;20040;-62
2023/10/08 02:25:01;;;;;;;;;;;15.90;99.90;;;;;;5068300;28;20666;-62
2023/10/08 02:27:27;;;;;;;26.33;9.23;;;15.90;99.90;;;;;;5063790;28;19921;-62
2023/10/08 02:29:52;;;;;;;25.95;10.48;;;15.90;99.90;;;;;;5063802;28;20409;-62
2023/10/08 02:32:18;;;;;;;;;;;15.90;99.90;;;;;;5084231;28;20038;-62
2023/10/08 02:34:44;;;;;;;24.60;10.20;;;15.90;99.90;;;;;;5077327;28;19923;-63
2023/10/08 02:37:15;;;;;;;25.80;9.95;;;15.90;99.90;;;;;;5090586;28;20078;-63
2023/10/08 02:39:40;;;;;;;19.30;10.25;;;15.90;99.90;;;;;;5087653;28;20070;-63
2023/10/08 02:42:10;;;;;;;;;;;15.90;99.90;;;;;;5082226;28;20483;-63
2023/10/08 02:44:41;;;;;;;23.98;10.30;;;15.80;99.90;;;;;;5085052;28;19916;-63
2023/10/08 02:47:08;;;;;;;30.20;12.35;;;15.80;99.90;;;;;;5086131;28;20100;-63
2023/10/08 02:49:34;;;;;;;39.35;13.85;;;15.70;99.90;;;;;;5084400;28;20055;-63
2023/10/08 02:52:04;;;;;;;32.90;13.65;;;15.80;99.90;;;;;;5087695;28;20123;-63
2023/10/08 02:54:36;;;;;;;37.38;13.63;;;15.80;99.90;;;;;;5084373;28;20044;-63
2023/10/08 02:57:10;;;;;;;28.85;12.10;;;15.70;99.90;;;;;;5092818;28;20483;-63
2023/10/08 02:59:40;;;;;;;30.90;12.20;;;15.70;99.90;;;;;;5084543;28;20051;-63
2023/10/08 03:02:15;;;;;;;42.17;15.18;;;15.70;99.90;;;;;;5084922;28;20051;-63
2023/10/08 03:04:45;;;;;;;29.88;14.55;;;15.60;99.90;;;;;;5085835;28;20043;-64
2023/10/08 03:07:21;;;;;;;29.55;13.35;;;15.60;99.90;;;;;;5091857;28;20141;-64
2023/10/08 03:09:50;;;;;;;34.78;13.98;;;15.60;99.90;;;;;;5085349;28;20039;-63
2023/10/08 03:12:17;;;;;;;30.05;14.02;;;15.50;99.90;;;;;;5085223;28;20054;-63
2023/10/08 03:15:01;;;;;;;36.47;12.77;;;15.50;99.90;;;;;;5086353;28;20424;-64
2023/10/08 03:17:37;;;;;;;27.55;13.15;;;15.50;99.90;;;;;;5085938;28;20040;-64
2023/10/08 03:20:29;;;;;;;30.80;12.38;;;15.50;99.90;;;;;;5084478;28;20165;-63
2023/10/08 03:22:52;;;;;;;33.22;13.38;;;15.50;99.90;;;;;;5081531;28;20534;-63
2023/10/08 03:25:18;;;;;;;;;;;15.50;99.90;;;;;;5087418;28;20028;-63
2023/10/08 03:27:44;;;;;;;27.25;13.25;;;15.50;99.90;;;;;;5085150;28;20014;-63
2023/10/08 03:30:15;;;;;;;;;;;15.60;99.90;;;;;;5084036;28;20530;-63
2023/10/08 03:32:45;;;;;;;27.92;12.02;;;15.60;99.90;;;;;;5080996;28;20021;-63
2023/10/08 03:35:12;;;;;;;27.30;12.85;;;15.50;99.90;;;;;;5085588;28;20089;-64
2023/10/08 03:37:45;;;;;;;36.25;14.30;;;15.60;99.90;;;;;;5087153;28;20040;-63
2023/10/08 03:42:58;;;;;;;31.25;12.70;;;15.50;99.90;;;;;;5083893;28;20040;-64
2023/10/08 03:48:11;;;;;;;32.67;15.68;;;15.40;99.90;;;;;;5086186;28;20032;-63
2023/10/08 03:50:41;;;;;;;32.20;13.65;;;15.40;99.90;;;;;;5087255;28;20042;-64
2023/10/08 03:53:12;;;;;;;25.98;12.70;;;15.40;99.90;;;;;;5083264;28;20094;-63
2023/10/08 03:55:41;;;;;;;29.13;14.32;;;15.50;99.90;;;;;;5090877;28;20032;-64
2023/10/08 03:58:19;;;;;;;32.25;14.43;;;15.50;99.90;;;;;;5087186;28;20442;-63
2023/10/08 04:00:45;;;;;;;26.38;13.88;;;15.40;99.90;;;;;;5085011;28;20114;-63
2023/10/08 04:03:11;;;;;;;37.35;12.90;;;15.40;99.90;;;;;;5087049;28;20111;-63
2023/10/08 04:06:14;;;;;;;;;;;15.40;99.90;;;;;;5089286;28;20464;-63
2023/10/08 04:08:55;;;;;;;34.55;14.93;;;15.40;99.90;;;;;;5085841;28;19924;-63
2023/10/08 04:11:32;;;;;;;26.02;13.52;;;15.40;99.90;;;;;;5090316;28;20107;-63
2023/10/08 04:14:03;;;;;;;27.17;13.50;;;15.30;99.90;;;;;;5085197;28;20048;-64
2023/10/08 04:16:30;;;;;;;26.05;14.05;;;15.30;99.90;;;;;;5087489;28;20048;-63
2023/10/08 04:18:56;;;;;;;28.73;13.63;;;15.30;99.90;;;;;;5085707;28;20059;-63
2023/10/08 04:21:27;;;;;;;33.70;12.73;;;15.30;99.90;;;;;;5095619;28;20039;-64
2023/10/08 04:23:53;;;;;;;40.05;15.30;;;15.30;99.90;;;;;;5086225;27;20071;-63
2023/10/08 04:26:26;;;;;;;40.58;15.50;;;15.40;99.90;;;;;;5082460;28;20129;-64
2023/10/08 04:29:01;;;;;;;33.65;15.15;;;15.30;99.90;;;;;;5085306;28;20043;-64
2023/10/08 04:31:43;;;;;;;32.75;15.00;;;15.30;99.90;;;;;;5084939;28;20040;-63
2023/10/08 04:34:22;;;;;;;32.38;16.60;;;15.30;99.90;;;;;;5083212;28;20391;-63
2023/10/08 04:36:54;;;;;;;37.83;16.65;;;15.30;99.90;;;;;;5092279;28;20055;-63
2023/10/08 04:39:31;;;;;;;35.97;15.25;;;15.30;99.90;;;;;;5081502;28;20047;-63
2023/10/08 04:42:10;;;;;;;32.08;14.32;;;15.20;99.90;;;;;;5089833;28;20043;-63
2023/10/08 04:44:39;;;;;;;27.45;13.60;;;15.20;99.90;;;;;;5089499;28;20032;-64
2023/10/08 04:47:04;;;;;;;35.17;15.57;;;15.20;99.90;;;;;;5089678;28;20036;-64
2023/10/08 04:49:32;;;;;;;;;;;15.20;99.90;;;;;;5085367;28;20052;-63
2023/10/08 04:52:13;;;;;;;33.83;14.73;;;15.20;99.90;;;;;;5088379;28;20669;-64
2023/10/08 04:54:41;;;;;;;37.63;16.67;;;15.20;99.90;;;;;;5087214;28;20119;-63
2023/10/08 04:57:15;;;;;;;40.63;16.55;;;15.20;99.90;;;;;;5087138;28;20040;-63
2023/10/08 04:59:46;;;;;;;28.90;13.80;;;15.20;99.90;;;;;;5085955;28;20097;-63
2023/10/08 05:08:00;;;;;;;;;;;15.10;99.90;;;;;;5088487;28;20086;-63
2023/10/08 05:13:15;;;;;;;32.72;14.38;;;15.10;99.90;;;;;;5084365;28;20035;-63
2023/10/08 05:15:49;;;;;;;35.60;14.95;;;15.10;99.90;;;;;;5090507;28;20429;-63
2023/10/08 05:28:25;;;;;;;36.67;14.82;;;15.20;99.90;;;;;;5084806;28;20040;-63
2023/10/08 05:31:21;;;;;;;43.00;18.20;;;15.10;99.90;;;;;;5081264;28;20040;-63
2023/10/08 05:36:49;;;;;;;31.73;15.07;;;15.10;99.90;;;;;;5080598;28;20043;-63
2023/10/08 05:42:16;;;;;;;32.63;15.18;;;15.10;99.90;;;;;;5083901;28;20148;-65
2023/10/08 05:44:45;;;;;;;31.95;13.52;;;15.20;99.90;;;;;;5078765;28;20099;-62
2023/10/08 05:55:42;;;;;;;29.48;14.02;;;15.10;99.90;;;;;;5086099;28;20118;-63
2023/10/08 05:58:24;;;;;;;31.52;14.27;;;15.10;99.90;;;;;;5082987;28;20059;-63
2023/10/08 06:09:04;;;;;;;34.47;17.00;;;15.10;99.90;;;;;;5085462;28;20131;-62
2023/10/08 06:11:41;;;;;;;30.80;15.32;;;15.10;99.90;;;;;;5084341;28;20114;-62
2023/10/08 06:14:13;;;;;;;;;;;15.10;99.90;;;;;;5086308;28;20037;-63
2023/10/08 06:16:46;;;;;;;38.92;18.92;;;15.10;99.90;;;;;;5087931;28;19959;-64
2023/10/08 06:19:13;;;;;;;40.47;18.25;;;15.10;99.90;;;;;;5084032;28;20070;-64
2023/10/08 06:21:40;;;;;;;37.60;17.70;;;15.00;99.90;;;;;;5081876;28;20044;-63
2023/10/08 06:24:11;;;;;;;43.65;22.63;;;15.10;99.90;;;;;;5081805;28;20072;-64
2023/10/08 06:26:48;;;;;;;38.45;20.05;;;15.10;99.90;;;;;;5084839;28;20098;-64
2023/10/08 06:29:27;;;;;;;36.30;17.63;;;15.00;99.90;;;;;;5082783;28;20109;-63
2023/10/08 06:32:05;;;;;;;33.75;17.60;;;15.00;99.90;;;;;;5085480;28;20116;-63
2023/10/08 06:34:31;;;;;;;48.25;20.13;;;15.00;99.90;;;;;;5086514;28;20121;-63
2023/10/08 06:37:01;;;;;;;44.80;20.40;;;14.90;99.90;;;;;;5082202;28;20130;-63
2023/10/08 06:39:47;;;;;;;47.55;20.73;;;14.90;99.90;;;;;;5082081;28;20037;-63
2023/10/08 06:42:15;;;;;;;47.28;19.05;;;14.90;99.90;;;;;;5086097;28;20036;-63
2023/10/08 06:44:43;;;;;;;38.67;19.60;;;14.90;99.90;;;;;;5084924;28;20051;-63
2023/10/08 06:47:09;;;;;;;48.05;22.50;;;14.90;99.90;;;;;;5084819;28;20470;-63
2023/10/08 06:49:35;;;;;;;;;;;14.90;99.90;;;;;;5082094;28;20056;-63
2023/10/08 06:52:02;;;;;;;38.20;18.65;;;14.80;99.90;;;;;;5079773;28;19946;-63
2023/10/08 06:54:30;;;;;;;42.92;19.35;;;14.80;99.90;;;;;;5082714;28;20050;-63
2023/10/08 06:56:56;;;;;;;43.53;20.08;;;14.80;99.90;;;;;;5086364;28;20129;-63
2023/10/08 06:59:23;;;;;;;38.33;20.33;;;14.80;99.90;;;;;;5083419;28;20547;-63
2023/10/08 07:01:51;;;;;;;49.55;25.65;;;14.80;99.90;;;;;;5082318;28;20044;-64
2023/10/08 07:04:18;;;;;;;45.47;24.95;;;14.80;99.90;;;;;;5084872;28;20044;-64
2023/10/08 07:06:46;;;;;;;47.10;24.45;;;14.80;99.90;;;;;;5087134;28;20101;-64
2023/10/08 07:11:54;;;;;;;71.55;15.20;;;14.40;99.90;;;;;;5085056;28;20051;-64
2023/10/08 07:14:22;;;;;;;31.08;11.65;;;13.90;99.90;;;;;;5085348;28;20480;-64
2023/10/08 07:16:52;;;;;;;34.97;9.68;;;13.60;99.90;;;;;;5084621;28;20044;-64
2023/10/08 07:19:18;;;;;;;55.78;10.50;;;13.40;99.90;;;;;;5081848;28;20641;-64
2023/10/08 07:21:46;;;;;;;32.85;7.80;;;13.20;99.90;;;;;;5082629;28;20115;-64
2023/10/08 07:24:17;;;;;;;17.60;7.53;;;12.90;99.90;;;;;;5084779;28;20044;-64
2023/10/08 07:26:46;;;;;;;12.18;7.45;;;12.80;99.90;;;;;;5083035;28;20042;-64
2023/10/08 07:29:17;;;;;;;8.85;6.55;;;12.70;99.90;;;;;;5085628;28;20614;-64
2023/10/08 07:31:48;;;;;;;11.02;6.50;;;12.60;99.90;;;;;;5087030;28;20107;-64
2023/10/08 07:34:18;;;;;;;12.00;7.05;;;12.60;99.90;;;;;;5086377;28;20483;-65
2023/10/08 07:36:49;;;;;;;13.70;8.02;;;12.60;99.90;;;;;;5087537;28;20094;-64
2023/10/08 07:41:51;;;;;;;10.10;5.93;;;12.50;99.90;;;;;;5089402;28;20036;-65
2023/10/08 07:44:23;;;;;;;6.63;3.85;;;12.50;99.90;;;;;;5088822;28;20040;-64
2023/10/08 07:46:54;;;;;;;4.70;3.15;;;12.60;99.90;;;;;;5090378;28;20040;-64
2023/10/08 07:49:20;;;;;;;2.97;2.17;;;12.60;99.90;;;;;;5085680;28;20032;-65
2023/10/08 07:51:54;;;;;;;2.80;1.88;;;12.50;99.90;;;;;;5090506;28;20047;-64
2023/10/08 07:54:24;;;;;;;2.78;1.27;;;12.60;99.90;;;;;;5088334;28;20043;-65
2023/10/08 07:57:08;;;;;;;1.40;1.00;;;12.60;99.90;;;;;;5091000;28;20091;-64
2023/10/08 07:59:38;;;;;;;1.10;0.77;;;12.60;99.90;;;;;;5089904;28;20043;-64
2023/10/08 08:02:10;;;;;;;0.98;0.77;;;12.70;99.90;;;;;;5089540;28;20055;-64
2023/10/08 08:04:39;;;;;;;0.82;0.50;;;12.60;99.90;;;;;;5087450;28;20043;-64
2023/10/08 08:07:06;;;;;;;3.03;0.40;;;12.50;99.90;;;;;;5090316;28;20113;-64
2023/10/08 08:09:37;;;;;;;0.20;0.20;;;12.30;99.90;;;;;;5085966;28;20504;-64
2023/10/08 08:12:11;;;;;;;0.22;0.15;;;12.20;99.90;;;;;;5090023;28;20051;-64
2023/10/08 08:14:40;;;;;;;1.23;0.20;;;12.00;99.90;;;;;;5088128;28;20040;-64
2023/10/08 08:17:13;;;;;;;0.10;0.10;;;12.00;99.90;;;;;;5090679;28;20040;-64
2023/10/08 08:19:40;;;;;;;0.10;0.10;;;12.00;99.90;;;;;;5089240;28;20767;-64
2023/10/08 08:22:05;;;;;;;0.10;0.10;;;12.00;99.90;;;;;;5089274;28;20040;-65
2023/10/08 08:24:35;;;;;;;;;;;12.10;99.90;;;;;;5089726;28;20392;-64
2023/10/08 08:27:08;;;;;;;0.20;0.20;;;12.20;99.90;;;;;;5089734;28;19934;-65
2023/10/08 08:29:44;;;;;;;0.20;0.20;;;12.20;99.90;;;;;;5076889;28;20045;-65
2023/10/08 08:32:15;;;;;;;0.20;0.20;;;12.20;99.90;;;;;;5088800;28;20048;-64
2023/10/08 08:34:43;;;;;;;0.10;0.10;;;12.10;99.90;;;;;;5089866;28;20047;-65
2023/10/08 08:37:12;;;;;;;0.10;0.10;;;11.90;99.90;;;;;;5089521;28;20058;-64
2023/10/08 08:39:39;;;;;;;0.15;0.10;;;11.80;99.90;;;;;;5089038;28;20074;-64
2023/10/08 08:42:04;;;;;;;0.10;0.10;;;11.80;99.90;;;;;;5089296;28;20186;-64
2023/10/08 08:44:45;;;;;;;;;;;11.70;99.90;;;;;;5086881;28;20128;-64
2023/10/08 08:47:17;;;;;;;0.10;0.10;;;11.60;99.90;;;;;;5089674;28;19927;-64
2023/10/08 08:49:47;;;;;;;0.10;0.10;;;11.60;99.90;;;;;;5088966;28;20036;-64
2023/10/08 08:52:14;;;;;;;0.43;0.10;;;11.50;99.90;;;;;;5089988;28;20102;-64
2023/10/08 08:54:42;;;;;;;0.20;0.20;;;11.40;99.90;;;;;;5086926;28;20081;-64
2023/10/08 08:57:13;;;;;;;0.10;0.10;;;11.30;99.90;;;;;;5088214;28;20689;-64
2023/10/08 09:00:10;;;;;;;0.40;0.20;;;11.30;99.90;;;;;;5089981;28;20047;-63
2023/10/08 09:02:37;;;;;;;0.17;0.17;;;11.40;99.90;;;;;;5080396;28;20048;-64
2023/10/08 09:08:03;;;;;;;0.10;0.10;;;11.20;99.90;;;;;;5082120;28;20404;-64
2023/10/08 09:10:30;;;;;;;0.40;0.22;;;11.20;99.90;;;;;;5089170;28;20051;-64
2023/10/08 09:12:59;;;;;;;0.40;0.40;;;11.10;99.90;;;;;;5085826;28;20112;-62
2023/10/08 09:15:28;;;;;;;0.43;0.20;;;11.10;99.90;;;;;;5089813;28;20048;-63
2023/10/08 09:18:00;;;;;;;1.13;0.10;;;10.90;99.90;;;;;;5083842;28;20048;-64
2023/10/08 09:20:27;;;;;;;0.90;0.30;;;10.70;99.90;;;;;;5084972;28;20054;-63
2023/10/08 09:23:11;;;;;;;2.70;0.30;;;10.70;99.90;;;;;;5085635;28;20032;-62
2023/10/08 09:25:41;;;;;;;0.40;0.30;;;10.70;99.90;;;;;;5089092;28;20044;-64
2023/10/08 09:28:07;;;;;;;0.38;0.30;;;10.60;99.90;;;;;;5086552;28;20039;-63
2023/10/08 09:30:37;;;;;;;0.57;0.30;;;10.70;99.90;;;;;;5088674;28;20040;-63
2023/10/08 09:33:06;;;;;;;0.30;0.30;;;10.80;99.90;;;;;;5084214;28;20088;-63
2023/10/08 09:35:32;;;;;;;0.57;0.30;;;10.80;99.90;;;;;;5089116;28;20048;-63
2023/10/08 09:37:59;;;;;;;0.30;0.30;;;10.70;99.90;;;;;;5085368;28;20068;-63
2023/10/08 09:40:25;;;;;;;1.05;0.30;;;10.70;99.90;;;;;;5088854;28;20097;-62
2023/10/08 09:42:52;;;;;;;2.50;0.70;;;10.60;99.90;;;;;;5084988;28;20045;-63
2023/10/08 09:45:18;;;;;;;0.40;0.30;;;10.60;99.90;;;;;;5088880;28;20040;-63
2023/10/08 09:47:52;;;;;;;0.40;0.30;;;10.60;99.90;;;;;;5084087;28;20041;-63
2023/10/08 09:50:30;;;;;;;0.63;0.40;;;10.60;99.90;;;;;;5087664;28;20174;-63
2023/10/08 09:53:19;;;;;;;0.88;0.43;;;10.70;99.90;;;;;;5084330;28;20093;-63
2023/10/08 09:55:54;;;;;;;1.20;0.40;;;10.70;99.90;;;;;;5088717;28;20040;-63
2023/10/08 09:58:22;;;;;;;0.98;0.40;;;10.70;99.90;;;;;;5086641;28;20134;-63
2023/10/08 10:00:49;;;;;;;0.43;0.32;;;10.70;99.90;;;;;;5087637;28;20122;-63
2023/10/08 10:03:18;;;;;;;2.38;0.40;;;10.80;99.90;;;;;;5084072;28;20040;-63
2023/10/08 10:05:44;;;;;;;1.38;0.40;;;;;;;;;;5088412;28;20067;-63
2023/10/08 10:08:11;;;;;;;2.33;0.30;;;;;;;;;;5084067;28;20036;-63
2023/10/08 10:10:43;;;;;;;0.68;0.40;;;;;;;;;;5078634;28;20036;-64
2023/10/08 10:13:12;;;;;;;0.88;0.30;;;;;;;;;;5082530;28;20058;-63
2023/10/08 10:15:38;;;;;;;1.80;0.40;;;;;;;;;;5087762;28;20063;-63
2023/10/08 10:18:13;;;;;;;0.82;0.30;;;;;;;;;;5084207;28;20504;-63
2023/10/08 10:20:46;;;;;;;1.33;0.47;;;;;;;;;;5085679;28;20048;-63
2023/10/08 10:23:31;;;;;;;0.63;0.45;;;;;;;;;;5086682;28;20064;-63
2023/10/08 10:25:57;;;;;;;2.53;0.43;;;;;;;;;;5087309;28;20040;-63
2023/10/08 10:28:24;;;;;;;0.77;0.47;;;;;;;;;;5086578;28;20407;-63
2023/10/08 10:30:51;;;;;;;2.00;0.50;;;;;;;;;;5086810;28;20039;-63
2023/10/08 10:33:17;;;;;;;1.65;0.40;;;;;;;;;;5083521;28;20085;-63
2023/10/08 10:35:43;;;;;;;;;;;;;;;;;;5088713;28;20040;-62
2023/10/08 10:38:13;;;;;;;1.00;0.50;;;;;;;;;;5084159;28;19923;-63
2023/10/08 10:40:39;;;;;;;2.38;0.57;;;;;;;;;;5088357;28;20036;-63
2023/10/08 10:43:06;;;;;;;;;;;;;;;;;;5083827;28;20051;-63
2023/10/08 10:45:36;;;;;;;;;;;;;;;;;;5088482;28;19916;-63
2023/10/08 10:56:32;;;;;;;2.00;0.45;;;;;;;;;;5088227;28;20047;-63
2023/10/08 10:59:15;;;;;;;1.95;0.43;;;;;;;;;;5085948;28;20051;-63
2023/10/08 11:01:46;;;;;;;27.00;14.98;;;;;;;;;;5093103;28;20039;-65
2023/10/08 11:04:15;;;;;;;5.70;3.03;;;;;;;;;;5085056;28;20044;-63
2023/10/08 11:06:44;;;;;;;13.55;1.48;;;;;;;;;;5087722;28;20040;-63
2023/10/08 11:09:15;;;;;;;1.58;0.60;;;;;;;;;;5082359;28;20111;-64
2023/10/08 11:11:43;;;;;;;4.95;0.55;;;;;;;;;;5090529;28;20044;-63
2023/10/08 11:14:15;;;;;;;0.80;0.47;;;;;;;;;;5085680;28;20116;-63
2023/10/08 11:16:43;;;;;;;1.85;0.70;;;;;;;;;;5085002;28;20252;-63
2023/10/08 11:19:09;;;;;;;2.60;0.70;;;;;;;;;;5084519;28;20055;-63
2023/10/08 11:21:53;;;;;;;2.75;0.88;;;;;;;;;;5077122;28;20635;-63
2023/10/08 11:24:37;;;;;;;1.13;0.52;;;;;;;;;;5083360;28;20067;-63
2023/10/08 11:27:17;;;;;;;1.92;0.30;;;;;;;;;;5091923;28;20048;-63
2023/10/08 11:29:56;;;;;;;1.15;0.40;;;;;;;;;;5082204;28;20049;-63
2023/10/08 11:32:25;;;;;;;0.98;0.30;;;;;;;;;;5084889;28;20109;-63
2023/10/08 11:34:55;;;;;;;2.67;1.35;;;;;;;;;;5086317;28;20601;-64
2023/10/08 11:37:33;;;;;;;0.63;0.50;;;;;;;;;;5084077;28;20048;-63
2023/10/08 11:40:06;;;;;;;2.13;1.00;;;;;;;;;;5086910;28;20120;-63
2023/10/08 11:45:17;;;;;;;2.78;0.60;;;;;;;;;;5086401;28;20430;-63
2023/10/08 11:47:45;;;;;;;2.20;0.73;;;;;;;;;;5078238;28;20044;-63
2023/10/08 11:50:11;;;;;;;3.25;1.00;;;;;;;;;;5086617;28;20071;-63
2023/10/08 11:52:41;;;;;;;0.60;0.50;;;;;;;;;;5080066;28;20044;-63
2023/10/08 11:55:08;;;;;;;3.53;0.50;;;;;;;;;;5087092;28;20467;-63
2023/10/08 11:57:35;;;;;;;4.30;0.50;;;;;;;;;;5086617;28;20119;-64
2023/10/08 12:00:18;;;;;;;4.15;0.70;;;;;;;;;;5092179;28;20051;-63
2023/10/08 12:02:47;;;;;;;1.48;0.50;;;;;;;;;;5082370;28;20456;-63
2023/10/08 12:05:20;;;;;;;4.38;0.80;;;;;;;;;;5085478;28;20040;-64
2023/10/08 12:07:50;;;;;;;2.58;0.60;;;;;;;;;;5085353;28;20129;-63
2023/10/08 12:10:21;;;;;;;4.15;0.65;;;;;;;;;;5085728;28;20095;-64
2023/10/08 12:12:48;;;;;;;2.78;0.70;;;;;;;;;;5085670;28;20048;-63
2023/10/08 12:15:19;;;;;;;3.42;0.63;;;;;;;;;;5084976;28;20055;-63
2023/10/08 12:17:52;;;;;;;5.60;2.05;;;;;;;;;;5081155;28;20041;-62
2023/10/08 12:20:27;;;;;;;6.63;1.67;;;;;;;;;;5090056;28;20048;-64
2023/10/08 12:22:53;;;;;;;5.75;0.70;;;;;;;;;;5087983;28;20640;-63
2023/10/08 12:25:19;;;;;;;;;;;;;;;;;;5089922;28;20036;-64
2023/10/08 12:27:47;;;;;;;3.15;0.88;;;;;;;;;;5088362;28;20426;-63
2023/10/08 12:30:13;;;;;;;3.28;0.90;;;;;;;;;;5087859;28;20046;-63
2023/10/08 12:32:42;;;;;;;3.63;1.70;;;;;;;;;;5086182;28;20033;-63
2023/10/08 12:35:12;;;;;;;3.20;1.10;;;;;;;;;;5083148;28;20079;-63
2023/10/08 12:37:39;;;;;;;1.75;1.10;;;;;;;;;;5083227;28;20042;-65
2023/10/08 12:40:22;;;;;;;2.08;1.20;;;;;;;;;;5087567;28;20055;-64
2023/10/08 12:42:50;;;;;;;3.05;0.90;;;;;;;;;;5086654;28;20099;-64
2023/10/08 12:45:20;;;;;;;4.85;1.30;;;;;;;;;;5094669;28;20040;-64
2023/10/08 12:47:57;;;;;;;6.10;1.20;;;;;;;;;;5089653;28;20076;-63
2023/10/08 12:50:29;;;;;;;2.03;1.00;;;;;;;;;;5094779;28;20542;-64
2023/10/08 12:53:03;;;;;;;3.05;0.90;;;;;;;;;;5085312;28;20400;-64
2023/10/08 12:55:30;;;;;;;4.57;1.23;;;;;;;;;;5090333;28;20107;-65
2023/10/08 12:58:05;;;;;;;1.50;0.88;;;;;;;;;;5090480;28;20052;-64
2023/10/08 13:00:32;;;;;;;3.63;0.90;;;;;;;;;;5087556;28;20044;-64
2023/10/08 13:03:01;;;;;;;5.05;1.45;;;;;;;;;;5085512;28;20067;-65
2023/10/08 13:05:27;;;;;;;4.30;1.30;;;;;;;;;;5087153;28;20599;-64
2023/10/08 13:08:03;;;;;;;6.45;1.02;;;;;;;;;;5083997;28;20516;-63
2023/10/08 13:10:30;;;;;;;3.78;0.93;;;;;;;;;;5089348;28;20067;-63
2023/10/08 13:12:57;;;;;;;4.30;1.10;;;;;;;;;;5085234;28;20072;-63
2023/10/08 13:15:25;;;;;;;5.35;1.08;;;;;;;;;;5085911;28;20412;-63
2023/10/08 13:17:52;;;;;;;2.92;1.00;;;;;;;;;;5085469;28;20048;-63
2023/10/08 13:20:19;;;;;;;2.92;1.00;;;;;;;;;;5088225;28;20116;-63
2023/10/08 13:22:46;;;;;;;5.82;1.10;;;;;;;;;;5090306;28;20067;-63
2023/10/08 13:25:12;;;;;;;6.20;1.13;;;;;;;;;;5087239;28;20412;-63
2023/10/08 13:27:39;;;;;;;4.38;1.30;;;;;;;;;;5091200;28;20052;-63
2023/10/08 13:30:11;;;;;;;3.40;1.02;;;;;;;;;;5088710;28;20088;-63
2023/10/08 13:32:37;;;;;;;8.18;1.30;;;;;;;;;;5062619;28;20037;-63
2023/10/08 13:35:07;;;;;;;6.05;1.40;;;;;;;;;;5068809;28;20043;-63
2023/10/08 13:37:36;;;;;;;3.33;1.25;;;;;;;;;;5073110;28;20964;-63
2023/10/08 13:40:02;;;;;;;4.57;1.58;;;;;;;;;;5066879;28;20036;-63
2023/10/08 13:42:29;;;;;;;4.88;1.33;;;;;;;;;;5064255;28;20037;-67
2023/10/08 13:44:57;;;;;;;3.70;1.08;;;;;;;;;;5065332;28;20040;-64
2023/10/08 13:47:25;;;;;;;3.28;1.27;;;;;;;;;;5060828;28;20048;-64
2023/10/08 13:49:52;;;;;;;8.18;1.90;;;;;;;;;;5065355;28;20041;-63
2023/10/08 13:52:26;;;;;;;5.78;1.45;;;;;;;;;;5057489;28;20056;-63
2023/10/08 13:54:52;;;;;;;7.85;1.80;;;;;;;;;;5062887;28;20049;-63
2023/10/08 13:57:21;;;;;;;4.53;1.60;;;;;;;;;;5067329;28;20094;-62
2023/10/08 13:59:48;;;;;;;8.27;1.60;;;;;;;;;;5064845;28;20033;-64
2023/10/08 14:02:21;;;;;;;3.85;1.40;;;;;;;;;;5064165;28;20037;-63
2023/10/08 14:04:50;;;;;;;3.20;0.98;;;;;;;;;;5055471;28;20075;-63
2023/10/08 14:07:19;;;;;;;5.05;1.63;;;;;;;;;;5068507;28;20118;-63
2023/10/08 14:09:45;;;;;;;5.53;1.00;;;;;;;;;;5061963;28;20037;-62
2023/10/08 14:12:13;;;;;;;3.20;1.13;;;;;;;;;;5062328;28;20086;-63
2023/10/08 14:14:46;;;;;;;5.30;1.30;;;;;;;;;;5065231;28;20040;-63
2023/10/08 14:17:15;;;;;;;7.95;1.52;;;;;;;;;;5061305;28;20067;-63
2023/10/08 14:19:52;;;;;;;3.35;0.95;;;;;;;;;;5064465;28;20032;-63
2023/10/08 14:22:21;;;;;;;10.32;1.63;;;;;;;;;;5062965;28;20132;-63
2023/10/08 14:24:58;;;;;;;3.88;1.08;;;;;;;;;;5065054;28;20108;-62
2023/10/08 14:27:31;;;;;;;6.47;1.23;;;;;;;;;;5067883;28;20048;-63
2023/10/08 14:30:00;;;;;;;3.83;1.08;;;;;;;;;;5062403;28;20586;-63
2023/10/08 14:32:27;;;;;;;6.68;1.42;;;;;;;;;;5066547;28;20127;-63
2023/10/08 14:43:11;;;;;;;4.25;0.98;;;;;;;;;;5063560;28;20036;-63
2023/10/08 14:45:39;;;;;;;1.35;0.80;;;;;;;;;;5068249;28;20044;-63
2023/10/08 14:48:10;;;;;;;2.15;0.70;;;;;;;;;;5067215;28;20048;-64
2023/10/08 14:50:38;;;;;;;6.32;1.30;;;;;;;;;;5071956;28;20107;-63
2023/10/08 14:53:05;;;;;;;3.55;1.35;;;;;;;;;;5068129;28;20094;-64
2023/10/08 14:55:33;;;;;;;3.65;1.35;;;;;;;;;;5068165;28;20056;-64
2023/10/08 14:58:06;;;;;;;4.55;0.98;;;;;;;;;;5069942;28;20415;-64
2023/10/08 15:00:32;;;;;;;3.05;1.13;;;;;;;;;;5069476;28;20189;-63